Idaho Falls Regional Airport
KIDA : rendu visible

Aérodrome :











RETROUVEZ-NOUS SUR...

 
LOGIN :

S'inscrire | Disclaimer

   EN    FR    IT 

 









Légende :    VFR   VFR Marginal   IFR   IFR Intensif   IFR Très Intensif
Visi : 
Plafond : 
>= 8 km
>= 3000ft
5 à 8 km
1000 à 3000 ft
1500m à 5 km
500 à 1000 ft
800 à 1500m
200 à 500 ft
< 800m
< 200 ft
Symboles :   Orages  Brouillard  Fortes neiges  Fortes précipitations  Vent > 20 kt






- Altitude de l'aérodrome : 4744 ft
- Code IATA : IDA


KIDA - Idaho Falls Regional

DERNIER METAR :
  • 201053Z AUTO 36007KT 10SM CLR M22/M24 A3049 RMK AO2 SLP417 T12171239

METARs EXPIRÉS :
  • 200953Z AUTO 35005KT 10SM CLR M22/M24 A3049 RMK AO2 SLP418 T12171239
  • 200853Z AUTO 35005KT 10SM CLR M23/M24 A3049 RMK AO2 SLP423 I3000 T12281244 53002

TAF KIDA
Valide du 20 à 06h jusqu'au 21 à 06h UTC


200525Z 2006/2106 01007KT P6SM SKC



MET'MAP, la Météo Aéronautique d'un coup d'oeil ! - Copyright ORBIFLY Décembre 2007 - Disclaimer

ORBIFLY MET'MAP TEAM :

Programmation & Développement : Alexandra Zaïnal
Sur une idée originale de : Baudouin d'Aumeries
Assistance à la programmation : Marc-Olivier Méhu
Soutien technique & logistique : Manuel Goepfert

Contact : metmap@orbifly.com




SOURCES & CREDITS :

   NOAA       Earth
Advisory